createdAt,value
2023-01-06T00:01:34.257Z,97162.09
2023-01-06T00:04:03.031Z,97165.88
2023-01-06T00:06:31.212Z,97160.34
2023-01-06T00:09:02.315Z,97148.84
2023-01-06T00:11:30.627Z,97142.00
2023-01-06T00:13:57.545Z,97152.53
2023-01-06T00:16:24.793Z,97145.56
2023-01-06T00:18:59.659Z,97142.56
2023-01-06T00:21:27.087Z,97138.00
2023-01-06T00:23:54.338Z,97135.09
2023-01-06T00:26:21.619Z,97132.50
2023-01-06T00:28:48.546Z,97134.81
2023-01-06T00:31:17.064Z,97130.25
2023-01-06T00:33:44.838Z,97130.59
2023-01-06T00:36:13.759Z,97132.56
2023-01-06T00:38:41.252Z,97137.19
2023-01-06T00:41:31.748Z,97128.97
2023-01-06T00:43:59.859Z,97133.72
2023-01-06T00:46:29.980Z,97129.78
2023-01-06T00:49:07.381Z,97123.38
2023-01-06T00:51:40.339Z,97120.69
2023-01-06T00:54:09.343Z,97122.31
2023-01-06T00:56:46.131Z,97118.38
2023-01-06T00:59:15.614Z,97112.78
2023-01-06T01:01:44.006Z,97111.13
2023-01-06T01:04:11.777Z,97112.19
2023-01-06T01:06:39.342Z,97113.84
2023-01-06T01:09:07.796Z,97114.50
2023-01-06T01:11:53.874Z,97107.00
2023-01-06T01:14:21.259Z,97107.81
2023-01-06T01:16:48.229Z,97107.34
2023-01-06T01:19:15.925Z,97104.06
2023-01-06T01:21:43.133Z,97106.03
2023-01-06T01:24:10.834Z,97106.56
2023-01-06T01:26:38.785Z,97109.34
2023-01-06T01:29:05.949Z,97098.22
2023-01-06T01:31:33.653Z,97109.72
2023-01-06T01:34:01.910Z,97107.63
2023-01-06T01:36:29.032Z,97108.44
2023-01-06T01:38:57.921Z,97108.09
2023-01-06T01:41:26.808Z,97109.44
2023-01-06T01:44:03.423Z,97108.16
2023-01-06T01:46:40.007Z,97101.78
2023-01-06T01:49:26.946Z,97099.47
2023-01-06T01:51:56.664Z,97111.47
2023-01-06T01:54:29.035Z,97104.91
2023-01-06T01:57:06.259Z,97106.19
2023-01-06T01:59:36.927Z,97101.78
2023-01-06T02:02:04.411Z,97096.38
2023-01-06T02:04:35.118Z,97100.69
2023-01-06T02:07:03.048Z,97095.44
2023-01-06T02:09:37.204Z,97100.66
2023-01-06T02:12:05.220Z,97094.13
2023-01-06T02:14:32.161Z,97089.88
2023-01-06T02:17:23.097Z,97087.25
2023-01-06T02:20:27.084Z,97094.59
2023-01-06T02:23:24.217Z,97088.06
2023-01-06T02:26:44.395Z,97094.94
2023-01-06T02:30:06.190Z,97083.00
2023-01-06T02:32:52.024Z,97078.41
2023-01-06T02:35:21.606Z,97078.41
2023-01-06T02:38:38.111Z,97074.13
2023-01-06T02:41:24.312Z,97071.53
2023-01-06T02:44:13.533Z,97062.69
2023-01-06T02:47:21.404Z,97066.59
2023-01-06T02:50:46.847Z,97053.31
2023-01-06T02:53:48.010Z,97050.88
2023-01-06T02:56:15.456Z,97049.88
2023-01-06T02:58:58.059Z,97053.13
2023-01-06T03:01:32.947Z,97052.78
2023-01-06T03:04:06.084Z,97052.41
2023-01-06T03:06:35.861Z,97052.41
2023-01-06T03:09:05.543Z,97054.41
2023-01-06T03:11:34.900Z,97052.59
2023-01-06T03:14:25.116Z,97049.84
2023-01-06T03:16:52.920Z,97050.16
2023-01-06T03:19:19.825Z,97048.84
2023-01-06T03:21:49.920Z,97042.25
2023-01-06T03:24:17.694Z,97045.38
2023-01-06T03:26:46.637Z,97049.56
2023-01-06T03:29:17.091Z,97046.94
2023-01-06T03:32:33.145Z,97048.28
2023-01-06T03:35:08.592Z,97051.38
2023-01-06T03:37:38.203Z,97045.84
2023-01-06T03:41:00.465Z,97040.91
2023-01-06T03:43:58.043Z,97041.53
2023-01-06T03:46:39.051Z,97040.56
2023-01-06T03:49:13.295Z,97039.88
2023-01-06T03:51:58.370Z,97043.75
2023-01-06T03:55:06.452Z,97046.22
2023-01-06T03:57:47.089Z,97039.88
2023-01-06T04:00:21.412Z,97039.88
2023-01-06T04:02:48.631Z,97034.31
2023-01-06T04:05:20.151Z,97033.28
2023-01-06T04:07:47.420Z,97036.09
2023-01-06T04:10:17.766Z,97034.94
2023-01-06T04:12:44.976Z,97027.78
2023-01-06T04:15:22.296Z,97036.09
2023-01-06T04:17:50.051Z,97047.66
2023-01-06T04:20:22.650Z,97043.06
2023-01-06T04:22:49.584Z,97056.69
2023-01-06T04:25:16.555Z,97050.44
2023-01-06T04:27:44.101Z,97054.63
2023-01-06T04:30:11.780Z,97051.69
2023-01-06T04:32:39.489Z,97054.28
2023-01-06T04:35:07.658Z,97061.00
2023-01-06T04:37:35.305Z,97052.22
2023-01-06T04:40:02.559Z,97041.22
2023-01-06T04:42:29.505Z,97039.94
2023-01-06T04:44:56.343Z,97044.72
2023-01-06T04:47:23.195Z,97040.97
2023-01-06T04:49:50.030Z,97047.78
2023-01-06T04:52:16.862Z,97049.75
2023-01-06T04:54:43.701Z,97043.38
2023-01-06T04:57:10.544Z,97029.47
2023-01-06T04:59:37.362Z,97032.97
2023-01-06T05:02:04.315Z,97033.34
2023-01-06T05:04:40.014Z,97035.34
2023-01-06T05:07:13.648Z,97029.19
2023-01-06T05:09:40.507Z,97028.69
2023-01-06T05:12:07.971Z,97030.78
2023-01-06T05:14:34.938Z,97030.09
2023-01-06T05:17:01.748Z,97038.75
2023-01-06T05:19:28.557Z,97016.06
2023-01-06T05:21:55.387Z,97041.22
2023-01-06T05:24:22.202Z,97036.47
2023-01-06T05:26:49.118Z,97034.69
2023-01-06T05:29:19.575Z,97035.91
2023-01-06T05:31:46.565Z,97035.53
2023-01-06T05:34:13.592Z,97034.47
2023-01-06T05:36:40.388Z,97037.72
2023-01-06T05:39:07.222Z,97033.50
2023-01-06T05:41:34.065Z,97032.50
2023-01-06T05:44:00.873Z,97025.00
2023-01-06T05:46:27.791Z,97026.50
2023-01-06T05:48:54.636Z,97028.94
2023-01-06T05:51:21.468Z,97028.94
2023-01-06T05:53:48.988Z,97034.16
2023-01-06T05:56:19.342Z,97038.66
2023-01-06T05:58:49.091Z,97042.81
2023-01-06T06:01:26.290Z,97034.53
2023-01-06T06:03:54.937Z,97035.06
2023-01-06T06:06:25.389Z,97038.66
2023-01-06T06:08:52.238Z,97040.81
2023-01-06T06:11:20.097Z,97040.13
2023-01-06T06:13:49.056Z,97044.75
2023-01-06T06:16:17.891Z,97039.53
2023-01-06T06:18:49.351Z,97046.41
2023-01-06T06:21:20.149Z,97044.03
2023-01-06T06:23:47.324Z,97041.19
2023-01-06T06:26:14.506Z,97042.53
2023-01-06T06:28:42.311Z,97042.09
2023-01-06T06:31:25.213Z,97031.19
2023-01-06T06:33:58.046Z,97038.19
2023-01-06T06:36:25.951Z,97037.00
2023-01-06T06:38:54.289Z,97034.03
2023-01-06T06:41:23.280Z,97037.31
2023-01-06T06:43:51.035Z,97029.19
2023-01-06T06:46:19.285Z,97037.97
2023-01-06T06:48:46.292Z,97022.50
2023-01-06T06:51:19.207Z,97022.03
2023-01-06T06:53:46.905Z,97022.53
2023-01-06T06:56:16.060Z,97021.56
2023-01-06T06:58:42.893Z,97016.38
2023-01-06T07:01:14.000Z,97018.66
2023-01-06T07:03:41.608Z,97018.38
2023-01-06T07:06:20.439Z,97022.50
2023-01-06T07:08:48.488Z,97023.13
2023-01-06T07:11:15.580Z,97030.63
2023-01-06T07:13:42.821Z,97031.09
2023-01-06T07:16:11.849Z,97038.88
2023-01-06T07:18:39.516Z,97026.22
2023-01-06T07:21:07.367Z,97023.75
2023-01-06T07:23:34.504Z,97021.59
2023-01-06T07:26:02.897Z,97025.09
2023-01-06T07:28:32.248Z,97021.53
2023-01-06T07:31:00.222Z,97017.06
2023-01-06T07:33:27.586Z,97021.69
2023-01-06T07:36:03.902Z,97022.41
2023-01-06T07:38:30.764Z,97019.44
2023-01-06T07:41:01.587Z,97022.13
2023-01-06T07:43:28.705Z,97017.47
2023-01-06T07:45:55.863Z,97024.63
2023-01-06T07:48:22.717Z,97022.69
2023-01-06T07:50:49.573Z,97025.06
2023-01-06T07:53:16.507Z,97029.03
2023-01-06T07:55:50.400Z,97035.09
2023-01-06T07:58:18.371Z,97031.91
2023-01-06T08:00:45.545Z,97037.97
2023-01-06T08:03:12.804Z,97032.28
2023-01-06T08:05:43.481Z,97022.44
2023-01-06T08:08:12.179Z,97022.44
2023-01-06T08:10:41.195Z,97032.88
2023-01-06T08:13:11.522Z,97029.59
2023-01-06T08:15:39.423Z,97026.94
2023-01-06T08:18:16.500Z,97020.41
2023-01-06T08:20:43.489Z,97020.56
2023-01-06T08:23:10.320Z,97022.16
2023-01-06T08:25:37.226Z,97014.44
2023-01-06T08:28:04.529Z,97013.47
2023-01-06T08:30:31.467Z,97014.09
2023-01-06T08:32:59.980Z,97010.81
2023-01-06T08:35:27.432Z,97012.81
2023-01-06T08:37:54.270Z,97008.19
2023-01-06T08:40:21.153Z,97004.41
2023-01-06T08:42:48.385Z,97007.03
2023-01-06T08:45:15.442Z,97014.56
2023-01-06T08:47:42.303Z,97014.59
2023-01-06T08:50:09.254Z,97009.38
2023-01-06T08:52:36.188Z,97009.47
2023-01-06T08:55:03.125Z,97018.00
2023-01-06T08:57:30.008Z,97016.16
2023-01-06T08:59:56.826Z,97011.75
2023-01-06T09:02:27.342Z,97011.50
2023-01-06T09:04:54.374Z,97013.63
2023-01-06T09:07:21.289Z,97012.75
2023-01-06T09:09:48.153Z,97030.41
2023-01-06T09:12:15.004Z,97029.78
2023-01-06T09:14:41.825Z,97035.09
2023-01-06T09:17:08.632Z,97043.44
2023-01-06T09:19:35.510Z,97038.16
2023-01-06T09:22:02.355Z,97042.56
2023-01-06T09:24:29.355Z,97048.25
2023-01-06T09:26:56.187Z,97053.75
2023-01-06T09:29:23.156Z,97061.25
2023-01-06T09:31:49.968Z,97062.53
2023-01-06T09:34:16.816Z,97059.44
2023-01-06T09:36:43.712Z,97057.16
2023-01-06T09:39:10.532Z,97064.84
2023-01-06T09:41:47.952Z,97067.72
2023-01-06T09:44:30.013Z,97063.66
2023-01-06T09:46:59.144Z,97066.53
2023-01-06T09:49:53.579Z,97063.22
2023-01-06T09:52:41.732Z,97063.44
2023-01-06T09:55:37.542Z,97070.81
2023-01-06T09:58:14.673Z,97060.56
2023-01-06T10:00:49.368Z,97066.44
2023-01-06T10:03:25.801Z,97060.00
2023-01-06T10:06:40.837Z,97053.66
2023-01-06T10:09:41.198Z,97046.59
2023-01-06T10:13:03.984Z,97047.09
2023-01-06T10:16:13.078Z,97042.06
2023-01-06T10:19:22.984Z,97041.13
2023-01-06T10:22:04.805Z,97051.41
2023-01-06T10:25:20.762Z,97051.84
2023-01-06T10:28:20.109Z,97045.94
2023-01-06T10:30:51.462Z,97047.72
2023-01-06T10:33:31.168Z,97041.53
2023-01-06T10:35:59.445Z,97037.13
2023-01-06T10:38:37.998Z,97033.06
2023-01-06T10:41:41.770Z,97042.63
2023-01-06T10:44:11.668Z,97041.06
2023-01-06T10:46:39.324Z,97042.97
2023-01-06T10:49:17.412Z,97030.00
2023-01-06T10:51:54.832Z,97024.66
2023-01-06T10:54:33.807Z,97025.94
2023-01-06T10:57:05.510Z,97026.00
2023-01-06T10:59:32.333Z,97024.59
2023-01-06T11:01:59.330Z,97020.09
2023-01-06T11:04:28.223Z,97022.41
2023-01-06T11:07:03.178Z,97023.16
2023-01-06T11:09:33.727Z,97015.44
2023-01-06T11:12:10.908Z,97018.72
2023-01-06T11:14:39.093Z,97014.91
2023-01-06T11:17:15.586Z,97014.69
2023-01-06T11:19:46.490Z,97007.47
2023-01-06T11:22:45.873Z,97006.09
2023-01-06T11:25:21.818Z,97001.34
2023-01-06T11:28:09.495Z,97009.25
2023-01-06T11:30:51.951Z,97004.38
2023-01-06T11:33:22.631Z,96998.66
2023-01-06T11:35:50.134Z,96992.41
2023-01-06T11:38:20.329Z,96997.84
2023-01-06T11:40:50.049Z,97005.72
2023-01-06T11:43:25.282Z,97002.50
2023-01-06T11:45:58.545Z,97000.41
2023-01-06T11:48:26.471Z,96996.13
2023-01-06T11:50:58.626Z,96989.66
2023-01-06T11:53:26.327Z,96987.44
2023-01-06T11:56:07.057Z,96994.75
2023-01-06T11:59:09.743Z,96983.44
2023-01-06T12:01:43.713Z,96989.31
2023-01-06T12:04:39.291Z,96974.28
2023-01-06T12:07:36.059Z,96967.97
2023-01-06T12:10:16.066Z,96974.34
2023-01-06T12:12:42.997Z,96960.78
2023-01-06T12:15:18.954Z,96971.34
2023-01-06T12:17:53.418Z,96966.09
2023-01-06T12:20:33.665Z,96974.38
2023-01-06T12:23:24.176Z,96968.81
2023-01-06T12:25:56.159Z,96975.41
2023-01-06T12:28:32.148Z,96973.59
2023-01-06T12:31:10.439Z,96973.91
2023-01-06T12:33:57.446Z,96974.56
2023-01-06T12:36:30.481Z,96973.09
2023-01-06T12:39:29.775Z,96983.94
2023-01-06T12:42:33.855Z,96980.50
2023-01-06T12:45:16.282Z,96997.13
2023-01-06T12:47:55.912Z,96984.53
2023-01-06T12:50:36.048Z,96989.25
2023-01-06T12:53:21.044Z,96986.88
2023-01-06T12:56:18.168Z,96986.88
2023-01-06T12:59:09.224Z,96996.66
2023-01-06T13:01:45.921Z,96994.94
2023-01-06T13:04:45.604Z,96996.28
2023-01-06T13:07:51.117Z,96990.06
2023-01-06T13:10:35.028Z,96976.72
2023-01-06T13:13:26.043Z,96985.84
2023-01-06T13:15:54.743Z,96997.75
2023-01-06T13:18:36.164Z,96985.91
2023-01-06T13:21:09.185Z,96988.34
2023-01-06T13:24:16.139Z,96989.78
2023-01-06T13:27:17.693Z,97003.00
2023-01-06T13:29:58.364Z,96998.13
2023-01-06T13:33:17.853Z,97001.75
2023-01-06T13:36:05.996Z,96993.34
2023-01-06T13:38:50.105Z,97004.00
2023-01-06T13:41:21.948Z,97001.94
2023-01-06T13:43:50.728Z,97003.19
2023-01-06T13:46:20.902Z,97007.47
2023-01-06T13:48:53.958Z,97012.31
2023-01-06T13:51:39.783Z,97003.84
2023-01-06T13:54:06.824Z,97007.13
2023-01-06T13:56:35.391Z,96998.59
2023-01-06T13:59:24.927Z,96994.53
2023-01-06T14:01:52.970Z,97005.28
2023-01-06T14:04:42.747Z,97015.63
2023-01-06T14:07:11.132Z,97010.78
2023-01-06T14:09:46.838Z,97003.69
2023-01-06T14:12:24.402Z,97005.00
2023-01-06T14:15:02.159Z,97002.78
2023-01-06T14:17:40.100Z,97003.38
2023-01-06T14:20:36.263Z,97000.91
2023-01-06T14:23:23.859Z,97003.41
2023-01-06T14:25:54.939Z,96998.91
2023-01-06T14:28:21.876Z,96998.91
2023-01-06T14:30:50.693Z,96997.66
2023-01-06T14:33:38.716Z,96999.66
2023-01-06T14:36:27.030Z,96991.50
2023-01-06T14:39:01.294Z,96998.75
2023-01-06T14:42:15.977Z,96983.69
2023-01-06T14:44:50.935Z,96993.38
2023-01-06T14:47:33.961Z,96995.31
2023-01-06T14:50:15.929Z,96994.91
2023-01-06T14:52:50.629Z,97001.78
2023-01-06T14:55:20.424Z,96997.91
2023-01-06T14:57:50.527Z,96998.91
2023-01-06T15:00:24.216Z,96993.16
2023-01-06T15:02:55.163Z,96992.66
2023-01-06T15:05:34.778Z,97001.44
2023-01-06T15:08:06.627Z,97000.44
2023-01-06T15:10:46.898Z,96992.78
2023-01-06T15:13:27.281Z,96996.03
2023-01-06T15:16:02.199Z,96996.03
2023-01-06T15:18:29.560Z,96996.03
2023-01-06T15:20:57.014Z,96993.41
2023-01-06T15:23:24.215Z,96997.94
2023-01-06T15:25:55.705Z,96994.47
2023-01-06T15:28:31.286Z,96987.31
2023-01-06T15:31:00.060Z,97007.59
2023-01-06T15:33:47.348Z,97007.84
2023-01-06T15:36:23.154Z,97012.50
2023-01-06T15:38:51.250Z,97010.44
2023-01-06T15:41:32.901Z,97004.34
2023-01-06T15:44:02.750Z,97004.34
2023-01-06T15:46:40.495Z,96992.59
2023-01-06T15:49:33.097Z,96991.41
2023-01-06T15:52:13.812Z,96993.94
2023-01-06T15:54:46.029Z,97008.47
2023-01-06T15:57:17.066Z,97006.09
2023-01-06T16:00:00.175Z,97017.41
2023-01-06T16:02:30.885Z,97010.84
2023-01-06T16:04:59.508Z,97013.63
2023-01-06T16:07:39.716Z,97013.63
2023-01-06T16:10:35.953Z,97019.19
2023-01-06T16:13:26.137Z,97016.38
2023-01-06T16:15:59.981Z,97028.19
2023-01-06T16:18:33.883Z,97032.16
2023-01-06T16:21:23.811Z,97037.88
2023-01-06T16:23:56.886Z,97033.34
2023-01-06T16:26:28.200Z,97042.81
2023-01-06T16:29:01.997Z,97041.00
2023-01-06T16:31:35.030Z,97036.47
2023-01-06T16:34:32.703Z,97043.56
2023-01-06T16:37:01.104Z,97051.06
2023-01-06T16:39:28.342Z,97051.81
2023-01-06T16:42:01.130Z,97062.00
2023-01-06T16:44:31.227Z,97063.44
2023-01-06T16:46:58.839Z,97063.63
2023-01-06T16:49:25.900Z,97069.00
2023-01-06T16:51:54.717Z,97059.22
2023-01-06T16:54:23.328Z,97055.31
2023-01-06T16:56:52.077Z,97057.97
2023-01-06T16:59:20.473Z,97050.41
2023-01-06T17:01:48.507Z,97056.56
2023-01-06T17:04:16.136Z,97060.19
2023-01-06T17:06:45.403Z,97055.31
2023-01-06T17:09:23.403Z,97054.69
2023-01-06T17:11:54.190Z,97065.22
2023-01-06T17:14:23.196Z,97066.22
2023-01-06T17:16:50.773Z,97068.19
2023-01-06T17:19:26.768Z,97068.03
2023-01-06T17:22:28.557Z,97075.31
2023-01-06T17:24:59.400Z,97064.88
2023-01-06T17:27:30.165Z,97076.22
2023-01-06T17:30:01.489Z,97080.28
2023-01-06T17:32:40.038Z,97079.09
2023-01-06T17:35:33.201Z,97082.38
2023-01-06T17:38:11.968Z,97082.38
2023-01-06T17:40:39.268Z,97076.66
2023-01-06T17:43:23.779Z,97076.47
2023-01-06T17:45:52.086Z,97081.84
2023-01-06T17:48:19.408Z,97078.22
2023-01-06T17:50:53.878Z,97083.91
2023-01-06T17:53:49.954Z,97085.53
2023-01-06T17:56:17.420Z,97086.19
2023-01-06T17:58:46.092Z,97095.34
2023-01-06T18:01:22.533Z,97092.00
2023-01-06T18:03:51.174Z,97101.91
2023-01-06T18:06:28.551Z,97098.09
2023-01-06T18:09:19.281Z,97099.25
2023-01-06T18:11:50.956Z,97098.28
2023-01-06T18:14:24.347Z,97106.16
2023-01-06T18:16:54.781Z,97105.19
2023-01-06T18:19:37.646Z,97103.53
2023-01-06T18:22:21.310Z,97103.28
2023-01-06T18:24:51.246Z,97096.81
2023-01-06T18:27:27.938Z,97090.94
2023-01-06T18:30:01.925Z,97098.00
2023-01-06T18:32:33.543Z,97106.91
2023-01-06T18:35:16.880Z,97110.53
2023-01-06T18:37:44.512Z,97108.25
2023-01-06T18:40:18.575Z,97103.81
2023-01-06T18:42:49.512Z,97109.91
2023-01-06T18:45:28.004Z,97109.09
2023-01-06T18:48:08.147Z,97107.78
2023-01-06T18:50:41.818Z,97102.09
2023-01-06T18:53:14.211Z,97107.78
2023-01-06T18:55:51.082Z,97106.63
2023-01-06T18:58:47.334Z,97108.06
2023-01-06T19:01:29.949Z,97111.41
2023-01-06T19:04:02.619Z,97107.72
2023-01-06T19:06:47.041Z,97108.34
2023-01-06T19:09:24.426Z,97109.09
2023-01-06T19:12:02.191Z,97099.34
2023-01-06T19:14:34.625Z,97099.28
2023-01-06T19:17:02.395Z,97103.25
2023-01-06T19:19:38.170Z,97090.66
2023-01-06T19:22:20.040Z,97096.34
2023-01-06T19:25:09.640Z,97084.13
2023-01-06T19:28:16.343Z,97096.00
2023-01-06T19:30:54.674Z,97094.03
2023-01-06T19:34:06.088Z,97092.72
2023-01-06T19:36:48.701Z,97096.91
2023-01-06T19:39:33.625Z,97094.13
2023-01-06T19:42:30.314Z,97096.91
2023-01-06T19:45:10.328Z,97091.66
2023-01-06T19:47:39.843Z,97102.34
2023-01-06T19:50:27.039Z,97100.53
2023-01-06T19:52:58.817Z,97097.44
2023-01-06T19:55:33.455Z,97095.19
2023-01-06T19:58:08.132Z,97094.03
2023-01-06T20:00:50.242Z,97095.28
2023-01-06T20:03:27.513Z,97095.09
2023-01-06T20:05:54.529Z,97092.91
2023-01-06T20:08:21.405Z,97094.56
2023-01-06T20:10:48.294Z,97092.19
2023-01-06T20:13:15.147Z,97091.75
2023-01-06T20:15:42.072Z,97086.09
2023-01-06T20:18:09.036Z,97086.66
2023-01-06T20:20:35.954Z,97096.19
2023-01-06T20:23:02.845Z,97091.75
2023-01-06T20:25:29.890Z,97096.19
2023-01-06T20:27:56.859Z,97097.34
2023-01-06T20:30:23.919Z,97087.66
2023-01-06T20:32:50.763Z,97090.03
2023-01-06T20:35:17.879Z,97104.53
2023-01-06T20:37:44.843Z,97089.09
2023-01-06T20:40:12.151Z,97093.44
2023-01-06T20:42:38.990Z,97102.81
2023-01-06T20:45:06.583Z,97108.88
2023-01-06T20:47:33.471Z,97102.00
2023-01-06T20:50:00.318Z,97096.25
2023-01-06T20:52:27.118Z,97112.69
2023-01-06T20:54:53.901Z,97100.69
2023-01-06T20:57:20.986Z,97103.63
2023-01-06T20:59:47.851Z,97097.72
2023-01-06T21:02:14.817Z,97092.19
2023-01-06T21:04:41.807Z,97098.28
2023-01-06T21:07:08.763Z,97097.44
2023-01-06T21:09:35.800Z,97095.00
2023-01-06T21:12:02.640Z,97089.47
2023-01-06T21:14:30.339Z,97085.38
2023-01-06T21:16:57.257Z,97090.91
2023-01-06T21:19:24.150Z,97090.91
2023-01-06T21:21:51.047Z,97088.09
2023-01-06T21:24:17.909Z,97094.66
2023-01-06T21:26:44.759Z,97081.66
2023-01-06T21:29:11.612Z,97080.84
2023-01-06T21:31:40.288Z,97083.66
2023-01-06T21:34:07.350Z,97078.56
2023-01-06T21:36:34.193Z,97084.75
2023-01-06T21:39:01.256Z,97086.34
2023-01-06T21:41:46.452Z,97081.47
2023-01-06T21:44:13.289Z,97072.50
2023-01-06T21:46:40.214Z,97074.56
2023-01-06T21:49:07.203Z,97074.56
2023-01-06T21:51:35.035Z,97070.31
2023-01-06T21:54:03.093Z,97077.84
2023-01-06T21:56:30.008Z,97079.84
2023-01-06T21:58:58.333Z,97079.84
2023-01-06T22:01:26.099Z,97086.72
2023-01-06T22:03:53.018Z,97081.81
2023-01-06T22:06:21.568Z,97073.94
2023-01-06T22:08:51.445Z,97075.41
2023-01-06T22:11:18.399Z,97072.59
2023-01-06T22:13:45.590Z,97074.41
2023-01-06T22:16:12.983Z,97070.75
2023-01-06T22:18:40.278Z,97068.41
2023-01-06T22:21:07.860Z,97063.41
2023-01-06T22:23:36.643Z,97067.59
2023-01-06T22:26:03.865Z,97073.22
2023-01-06T22:28:30.912Z,97068.47
2023-01-06T22:30:58.161Z,97065.75
2023-01-06T22:33:25.022Z,97065.28
2023-01-06T22:35:51.923Z,97063.94
2023-01-06T22:38:18.836Z,97068.84
2023-01-06T22:40:46.985Z,97067.28
2023-01-06T22:43:13.866Z,97065.56
2023-01-06T22:45:40.687Z,97065.84
2023-01-06T22:48:07.597Z,97068.78
2023-01-06T22:50:34.376Z,97057.88
2023-01-06T22:53:01.329Z,97066.75
2023-01-06T22:55:28.153Z,97064.50
2023-01-06T22:57:55.012Z,97071.47
2023-01-06T23:00:21.943Z,97067.38
2023-01-06T23:02:48.956Z,97068.56
2023-01-06T23:05:15.947Z,97062.00
2023-01-06T23:07:43.989Z,97060.75
2023-01-06T23:10:14.110Z,97061.41
2023-01-06T23:12:42.092Z,97058.41
2023-01-06T23:15:09.800Z,97063.66
2023-01-06T23:17:37.887Z,97064.66
2023-01-06T23:20:06.021Z,97062.38
2023-01-06T23:22:32.851Z,97051.06
2023-01-06T23:24:59.755Z,97066.81
2023-01-06T23:27:26.596Z,97064.72
2023-01-06T23:29:53.483Z,97057.16
2023-01-06T23:32:20.385Z,97065.03
2023-01-06T23:34:47.724Z,97051.09
2023-01-06T23:37:14.564Z,97055.34
2023-01-06T23:39:41.359Z,97050.91
2023-01-06T23:42:08.186Z,97052.91
2023-01-06T23:44:35.038Z,97040.59
2023-01-06T23:47:01.925Z,97037.13
2023-01-06T23:49:28.751Z,97041.13
2023-01-06T23:51:55.716Z,97037.50
2023-01-06T23:54:22.733Z,97034.50
2023-01-06T23:56:49.677Z,97038.31
2023-01-06T23:59:16.558Z,97032.88
